Grab New Year Coupons to Cut Down Price for All Goods of Geekbuying

0

Here are daily coupons for Geekbuying hot products, especially for New Year Sale, we will update daily for you, you can focus on it and check if there is any needs before buying.

Below are latest coupons update daily at lowest price from Geekbuying New Year Sale, as we know this is one of the biggest festivals for customers to enjoy lowest price. Here we update daily for coupons with limited quanity to ensure you will get best price, cheaper than their flash sale price, exclusively on our site..

Update on Feb.,16, 2019

Start Date Product Name Link on Coupon Final Prices Limited Qty Expiry Date
2019-02-13 $2 off for orders over $20 SUPER001 based on sale price 200 pcs daily 2019-02-22
2019-02-13 $5 off for orders over $80 SUPER002 based on sale price 200 pcs daily 2019-02-22
2019-02-13 $20 off for orders over $200 SUPER003 based on sale price 20 pcs daily 2019-02-22
2019-02-02 $2 off for orders over $30 GKBFEB1 on sale price 800 2019-02-15
2019-02-02 $5 off for orders over $100 GKBFEB2 on sale price 800 2019-02-15
2019-02-02 $16 off on orders over $300 GKB201901 on original price 300 2019-02-15
2019-02-02 $26 off on orders over $500 GKB201902 on original price 300 2019-02-15
2019-02-15 Xiaomi redmi Note 5 4GB 64GB Black YSSRYTPE $199.99 50 2019-03-14
2019-02-15 Xiaomi Mi Mix 2S 6GB 64GB Black Global Version MLECJYOE $379.99 50 2019-03-14
2019-02-15 Xiaomi Poco F1 6GB 128GB Black GCZTFBRH $349.99 50 2019-03-14
2019-02-15 Xiaomi Mi Max 3 4GB 64GB Black PUBTLCFR $259.99 50 2019-03-14
2019-02-15 Xiaomi Mi A2 6GB 128GB Gold IVFUCGYF $249.99 50 2019-03-14
2019-02-15 Xiaomi Pocophone F1 6GB 64GB WXFNCTTO $329.99 50 2019-03-14
2019-02-15 Xiaomi Mi Mix 3 6GB 128GB Black Global Version XTXZPTQS $539.99 100 2019-03-14
2019-02-15 Oneplus 6 8GB + 128GB HVFMFNCA $429.99 50 2019-03-14
2019-02-15 Xiaomi Mi Play 4GB + 64GB UHPJJNYH $199.99 100 2019-03-14
2019-02-15 Xiaomi Redmi Note 7 3GB + 32GB GBQRKJUJ $189.99 100 2019-03-14
2019-02-15 Xiaomi Redmi Note 7 4GB + 64GB PDXUFECL $229.99 100 2019-03-14
2019-02-15 Xiaomi Redmi Note 7 6GB + 64GB VHXIQDUI $259.99 100 2019-03-14
2019-02-15 Oneplus 6T 6GB 128GB Black PNRHGIQT $549.99 100 2019-03-14
2019-02-15 Xiaomi JIMMY JW31 Lightweight Cordless Pressure Washer HUEBPSLB $165.99 50 2019-03-14
2019-02-15 Xiaomi FIMI A3 1080P 5.8G GPS 1KM FPV RC Drone GLWVLPUZ $306.99 50 2019-03-12
2019-02-15 HG HG-P801 M983 2.4G 1:12 8×8 Off-road RC Car VLDEPUVJ $599.00 50 2019-03-12
2019-02-15 Wingsland S6 4K FPV GPS Obstacle Avoidance RC Quadcopter BYKIDUSK $148.99 50 2019-03-12
2019-02-15 ZOHD Dart Sweepforward Wing FPV EPP 635mm Wingspan RC Airplane – PNP APYPHXRV $72.99 50 2019-03-12
2019-02-15 HUAWEI WATCH GT Sports Smart Watch 1.39 Inch AMOLED Colorful Screen Heart Rate Monitor Built-in GPS FUIHFXVW $199.99 50 2019-02-27
2019-02-15 TOSHIBA DT01ACA200 2TB 3.5 Inch Desktop HDD Internal Hard Disk Drive TBHUXSMM $89.99 50 2019-02-27
2019-02-15 Roborock S50 Robot Vacuum Cleaner 2 YVRBPQYB $439.99 50 2019-03-12
2019-02-15 Xiaomi iHealth Blood Glucose Monitoring System JLHYPHUR $35.99 100 2019-03-12
2019-02-15 YEPO 737A Laptop Intel Apollo Lake J3455 SERVSXSE $275.99 50 2019-03-14
2019-02-15 ALLDOCUBE KNote 5 2 in 1 Tablet PC Intel Gemini Lake N4000 FLLOLMSO $259.99 50 2019-03-14
2019-02-14 Xiaomi Beebest FZ101 Portable Zoom Flashlight GKB043S $29.99 50 2019-03-12
2019-02-14 [Poland Stock] [International Version] Xiaomi QICYCLE EF1 Electric Bike GKB042S $844.99 50 2019-03-12
2019-02-14 ESWING ES6+ City Electric Two-wheel Self Balancing Scooter GKB045S $1,749.99 50 2019-03-12
2019-02-14 MI TS Sunglasses GKB044S $31.99 50 2019-03-12
2019-02-13 Xiaomi JIMMY JW31 Lightweight Cordless Pressure Washer PGPSYEYL $189.99 50 2019-03-12
2019-02-13 Xiaomi JIMMY JW31 Lightweight Cordless Pressure Washer WYBWBWTN $179.99 50 2019-03-12
2019-02-12 Teclast F6 Laptop Intel Apollo Lake N3450 FILOIZMQ $279.99 50 2019-03-10
2019-02-12 Chuwi Hipad Tablet PC Helio X27 MKT6797T YVIVYOSG $155.99 50 2019-03-10
2019-02-12 Roborock Xiaowa E20 Robot Vacuum Cleane KGZZTLWK $279.99 50 2019-03-10
2019-02-12 3PCS Xiaomi Viomi Filter Element Carbo UPEWCLCI $29.99 50 2019-03-10
2019-02-11 DOOGEE S60 6GB 64GB Smartphone Black DNJYLLCN $259.99 100 2019-03-10
2019-02-11 Ulefone Armor 6 6GB + 128GB Smartphone MBHKVSIM $349.99 100 2019-03-10
2019-02-11 Xiaomi Mi Mix 3 6.39 Inch 6GB 128GB Smartphone Black Global Version GEXCPZCW $559.99 100 2019-03-10
2019-02-11 Xiaomi Mi Mix 2 SE 8GB 128GB Smartphone – White VBQRKTVM $319.99 100 2019-03-10
2019-02-11 Xiaomi Mi 8 Lite 4GB 64GB Smartphone Global Version OKJASZDB $239.99 100 2019-03-10
2019-02-11 Oneplus 6T 6GB 128GB Smartphone Black PNRHGIQT $549.99 100 2019-03-10
2019-02-03 Xiaomi mi A2 4GB 64GB Black Global Version DE Stock DNUJZIIX $205.99 100 2019-02-15
2019-02-03 Xiaomi redmi Note 5 4GB 64GB Black Global Version DE Stock BUSOKXIH $209.99 100 2019-02-15
2019-02-03 Xiaomi redmi Note 5 4GB 64GB Gold Global Version DE Stock IRXQTIJU $205.99 100 2019-02-15
2019-02-03 Xiaomi MI MIX 2s 6gb 64GB Black Global Version DE Stock ZMQCXYVQ $379.99 100 2019-02-15
2019-02-03 Xiaomi MI MAX 2 4GB 64GB Gold IT Stock FWHVVPUC $185.99 100 2019-02-15
2019-02-03 Xiaomi MI A2 4GB 64GB Black Global Version IT Stock PPPGTBHK $214.99 100 2019-02-15
2019-02-03 Xiaomi redmi Note 5 4GB 64GB Black Global Version IT Stock WFNUIKRR $199.99 100 2019-02-15
2019-02-03 Xiaomi redmi Note 5 4GB 64GB Gold Global Version IT Stock CTPKDDRV $209.99 100 2019-02-15
2019-02-03 Xiaomi redmi Note 5 4GB 64GBGlobal Version ES Stock LXANLEFH $199.99 100 2019-02-15
2019-02-03 Xiaomi MI MIX 2s 6gb 64GB Black Global Version ES Stock WUBHQPED $389.99 100 2019-02-15
2019-02-03 Xiaomi Mi A2 Lite 4GB 64GB Black Global Version ES Stock WOJHHNJC $199.99 100 2019-02-15
2019-02-03 Xiaomi Mi A2 Lite 4GB 64GB Gold Global Version ES Stock PXULCITX $199.99 100 2019-02-15
2019-02-03 Xiaomi MI MAX 3 4GB 64GB Black ES Stock SWKYDTEK $269.99 100 2019-02-15
2019-02-02 $4 Off Order Value Over $65 TVBOXDE2 On Sale 100 2019-02-15
2019-02-02 $8 Off Order Value Over $120 TVBOXDE1 On Sale 30 2019-02-15
2019-02-02 $2 Off Order Value Over $30 TVBOXIT1 On Sale 30 2019-02-15
2019-02-02 $10 Off Order Value Over $160 TVBOXIT2 On Sale 30 2019-02-15
2019-02-02 $6 Off Order Value Over $100 TVBOXPL1 On Sale 30 2019-02-15
2019-02-02 5% Off All Items TVBOXPL2 On Sale 30 2019-02-15
2019-02-02 5% Off All Items EZASAXKX On Sale 100 2019-02-15
2019-02-02 $3 Off Order Value Over $55 TVBOXES1 On Sale 30 2019-02-15
2019-02-02 $8 Off Order Value Over $130 TVBOXES2 On Sale 30 2019-02-15
2019-02-02 KUGOO S1 Folding Electric Scooter 350W Motor LCD Display Screen 3 Speed Modes WAQDZNDZ $329.99 200 2019-02-20
2019-02-02 A95X PLUS Amlogic S905Y2 4GB/32GB Android 4K TV Box ILYTCXRP $51.99 30 2019-02-15
2019-02-02 Beelink J45 J4205 8GB 256GB Windows 10 Mini PC LNEXUGYR $269.99 30 2019-02-15
2019-02-02 Chuwi Hi9 Air GKB132T $211.99 20 2019-02-15
2019-02-02 IT Chuwi Lapbook SE GKB136T $292.99 20 2019-02-15
2019-02-02 PL Chuwi Lapbook SE GKB135T $282.99 20 2019-02-15
2019-02-02 ES Chuwi Lapbook SE GKB134T $292.99 20 2019-02-15
2019-02-02 Dophigo DPH-DI-200 Smart Wifi Video Doorbell OPGSUEQK $57.99 100 2019-02-15
2019-02-02 English Version)Xiaomi Huami Amazfit Bip DXIEHRXM $59.99 50 2019-02-15
2019-02-02 English Version)Xiaomi Huami Amazfit Bip XGVKHMUT $63.99 100 2019-02-15
2019-02-02 English Version)Xiaomi Huami Amazfit Bip GTDMTZZM $59.99 50 2019-02-15
2019-02-02 English Version)Xiaomi Huami Amazfit Bip MPCUJWZH $63.99 100 2019-02-15
2019-02-02 Fat Shark 101 Micro FPV Racing Drone with FPV Goggles CSTFJMRP $194.99 20 2019-02-15
2019-02-02 Happymodel Mobula7 Flysky Receiver BNF – Basic Version SDPDATEU $79.99 20 2019-02-15
2019-02-02 HG HG-P801 M983 2.4G 1:12 8×8 Off-road RC Car VLDEPUVJ $446.00 50 2019-02-15
2019-02-02 (English Version)Original Xiaomi HUAMI AMAZFIT Stratos Smart Sports Watch 2 LFVSAJVL $163.99 100 2019-02-15
2019-02-02 [HK Stock] [English Version] Huami AMAZFIT Verge 3 Smart Watch GEVYVKQZ $149.99 50 2019-02-15
2019-02-02 Huawei Honor Magic Smart Watch 1.2 Inch AMOLED Color Screen Built-in GPS OJKCZVWT $154.99 100 2019-02-15
2019-02-02 Hubsan H117S Zino 4K GPS WIFI FPV RC Drone IJJOTKGQ $426.99 20 2019-02-15
2019-02-02 Roborock S55 Robot Vacuum Cleaner FXUDAVPJ $459.99 10 2019-02-15
2019-02-02 JJRC Q65 Transporter-6 2.4G 1:10 4WD RC Car XJJKBTCT $38.99 50 2019-02-15
2019-02-02 KUGOO S1 Folding Electric Scooter 350W Anti-Skid Tire IP54 Waterproof GKB038S $329.99 150 2019-02-15
2019-02-02 MECOOL KM9 S905X2 4GB DDR4 32GB eMMC 4K TV Box QQQCSBVU $59.99 30 2019-02-15
2019-02-02 Megawheels L4 Electric Balance Scooter 500W GKB039S $144.99 30 2019-02-15
2019-02-02 Megawheels L5 Electric Balance Scooter 500W 4000mAh Motor GKB040S $154.99 30 2019-02-15
2019-02-02 Megawheels Electric Balance Scooter 500W 2000mAh Motor GKB041S $145.99 30 2019-02-15
2019-02-02 Megawheels TW01S-1-Blue Hoverboard GKB034S $149.99 30 2019-02-15
2019-02-02 MEGAWHEELS TW02-1 Electric Self Balance Scooter GKB033S $169.99 30 2019-02-15
2019-02-02 MJX Bugs 5W 1080P WIFI FPV RC Drone – Two Battery FTKEIPJQ $155.00 19 2019-02-15
2019-02-02 MX10 RK3328 DDR4 4GB/32GB Android 9.0 4K TV BOX PLURRGGH $49.99 30 2019-02-15
2019-02-02 MX10 RK3328 4GB/64GB Android 9.0 4K TV BOX KNKYOWSF $51.99 50 2019-02-15
2019-02-02 Xiaomi Robotic Vacuum Cleaner Rolling Brush Cover OPYUTLWN $13.99 80 2019-02-15
2019-02-02 Quelima A3S Mini Car DVR GKB014A $14.99 30 2019-02-15
2019-02-02 RASSE YB-ED-022 Off Road Electric Skateboard GKB037S $439.99 30 2019-02-15
2019-02-02 RASSE YB-ES01 Electric Skateboard GKB036S $263.99 30 2019-02-15
2019-02-02 REDPAWZ R011 FPV Racing Drone with Goggles – Two Battery MAMIRFPM $68.99 25 2019-02-15
2019-02-02 REDPAWZ R020 BLAST 720P RC Drone – Two Battery GLEQZAVO $49.99 30 2019-02-15
2019-02-02 R-TV BOX S10 Plus RK3328 4GB/64GB 4K TV Box Wireless Charger NEAEMHJK $66.99 50 2019-02-15
2019-02-02 Teclast F6 Pro GKB133T $455.99 20 2019-02-15
2019-02-02 IT Teclast F6 Pro GKB138T $455.99 25 2019-02-15
2019-02-02 DE Teclast F6 Pro GKB137T $454.99 25 2019-02-15
2019-02-02 ES Teclast M89 GKB140T $143.99 15 2019-02-15
2019-02-02 DE Teclast T10 GKB139T $191.99 25 2019-02-15
2019-02-02 TicWatch C2 Smartwatch Wear OS by Google 1.3 Inch AMOLED Screen IP68 Built-in GPS HAUWKVCS $187.99 100 2019-02-15
2019-02-02 Ticwatch PRO Smartwatch Wear OS 1.4 Inch OLED/LED Double Screens Heart Rate Monitor IP68 Built-in GPS OLIQGVEI $229.99 100 2019-02-15
2019-02-02 VORKE Z6 Plus S912 3GB/32GB 4K TV BOX CIFEIJNN $57.99 100 2019-02-15
2019-02-02 X96 MINI S905W 2GB/16GB TV BOX with IR Receiver RUPBOHMI $36.99 30 2019-02-15
2019-02-02 Xiaomi Dafang Smart 1080P WiFi IP Camer ACEDZSGR $38.99 40 2019-02-15
2019-02-02 Xiaomi Dreame V9 Cordless Stick Vacuum Cleaner KWXMDQTX $259.99 50 2019-02-15
2019-02-02 Xiaomi Lexy JIMMY JV51 Lightweight Cordless Stick Vacuum Cleaner YIHTECFY $199.99 50 2019-02-15
2019-02-02 XIAOMI Mi Box S Netflix 4K TV BOX with Voice Remote LZYQUFDT $75.99 60 2019-02-15
2019-02-02 Xiaomi Mi Pad 4 WiFi 4GB + 64GB GKB130T $227.99 30 2019-02-15
2019-02-02 Xiaomi Mi Pad 4 WiFi 4GB + 64GB GKB131T $228.99 20 2019-02-15
2019-02-02 Xiaomi Mi Robot Vacuum Cleaner Robot UBVQULXR $339.99 30 2019-02-15
2019-02-02 Roborock Xiaowa Plus E35 Robot Vacuum Cleaner GUDKKYCX $319.99 20 2019-02-15
2019-02-02 Roborock Xiaowa E20 Robot Vacuum Cleaner XATFTWSM $289.99 20 2019-02-15
2019-02-02 Xiaomi Roidmi F8 Smart Vacuum Cleaner NTPVZYKO $309.99 50 2019-02-15
2019-02-02 Xiaomi Viomi Smart Hot Water Dispenser LJYWRTSS $129.99 10 2019-02-15
2019-02-02 Xiaomi Yeelight YLDP06YL Smart Light Bulb BUBXMKLH $21.99 50 2019-02-15
2019-02-02 XShuai HXS-C3 Robotic Vacuum Cleaner OVKCHNPE $146.99 30 2019-02-15
2019-02-02 Xiaomi Mi A2 Lite 3GB 32GB Smartphone NHODZWXT $175.99 100 2019-02-15
2019-02-02 Blackview BV9500 Smartphone 4GB 64GB – Yellow UHGVWRJB $278.99 100 2019-02-15
2019-02-02 Xiaomi Mi Max 3 4GB 64GB SEELJRZA $269.99 100 2019-02-15
2019-02-02 Oneplus 6 8GB 128GB black DBJGPMPB $449.99 100 2019-02-15
2019-02-02 Global Version Xiaomi Mi 8 Lite 4GB 64GB KIJLSEOZ $239.99 100 2019-02-15
2019-02-02 Blackview BV9600 Pro 0 6GB+128GB KEPXYXRM $379.99 100 2019-02-15
2019-02-02 Oneplus 6T 6GB 128GB Black GGBIFJAI $549.99 100 2019-02-15
2019-02-02 DOOGEE S60 6GB 64GB Smartphone ICYCDMTK $259.99 100 2019-02-15
2019-02-02 DOOGEE S60 Lite 4GB 32GB MSLJQQMH $179.99 100 2019-02-15
2019-02-02 Xiaomi Mi Mix 2 SE 8GB 128GB White BQGFPZET $319.99 100 2019-02-15
2019-02-02 Xiaomi Mi Mix 3 6GB 128GB Black KDZUGWYR $539.99 100 2019-02-15
2019-02-02 Ulefone Armor 6 6GB+128GB + Wireless Charger FRBJJNOM $359.99 100 2019-02-15
2019-02-01 Oneplus 6T 6GB + 128GB OIOGFUUH $539.99 200 2019-02-28
2019-02-01 Xiaomi Mi 8 Lite 4GB + 64GB WSEUCHGP $239.99 200 2019-02-28
2019-02-01 Oneplus 6T 6GB + 128GB ZPOHDINS $575.99 200 2019-02-28
2019-02-01 HUAWEI Honor 10 Lite 6GB + 64GB KKIDUHXZ $295.99 200 2019-02-28
2019-02-01 [ES Stock] DOOGEE S80 6GB + 64GB BNGCTOXP $379.99 50 2019-02-28
2019-02-01 Oneplus 6T 10GB + 256GB PKXBXGRE $849.99 200 2019-02-28
2019-02-01 Geekbes NAS-WS02W Smart Water Flood Sensor CPDMCKUQ $15.99 50 2019-02-15
2019-02-01 Quelima A3S Mini Car DVR GKB014A $14.99 50 2019-02-28

 

Update on Feb.,11, 2019

Start Date Product Name Link on coupon Final Prices Limited Qty Expiry Date
2/9/2019 Oneplus 6 8GB 128GB JESBJFCI $439.99 100 2/28/2019
2/9/2019 Xiaomi Mi Mix 2S 6GB + 64GB XAYIPFBG $359.99 100 2/28/2019
2/9/2019 Blackview BV9600 pro 6GB + 128GB ODWHONBX $369.99 100 2/28/2019
2/9/2019 [Italy Stock] Global ROM Oneplus 6T 6GB 128GB – Mirror Black GPZALTHA $579.99 100 2/18/2019
2/9/2019 [Italy Stock] Global Version Xiaomi Mi 8 Lite 6GB 128GB – Dream Blue GRPSFDEI $279.99 100 2/18/2019
2/9/2019 [Italy Stock] Global Version Xiaomi Redmi Note 5 4GB 64GB PFFONYPG $199.99 100 2/18/2019
2/9/2019 [Italy Stock] Xiaomi Pocophone F1 6GB 64GB – Steel Blue YMLKMUVS $349.99 100 2/18/2019
2/9/2019 [Italy Stock] Global Version Xiaomi Mi Mix 2S 6GB 64GB – White JIREOIXX $379.99 100 2/18/2019
2/9/2019 Xiaomi Mi Mix 2 SE 8GB 128GB White CCHEEBQV $309.99 100 2/17/2019
2/9/2019 [Germany Stock] Global Version Xiaomi Mi MIX 2S 6GB 64GB ZWHULDVN $379.99 100 2/112019
2/9/2019 Huami AMAZFIT Verge 3 Smart Watch POOHNKQH $149.99 100 2/28/2019
2/9/2019 All Wearables of EU Warehouses EZASAXKX 5% OFF 100 2/28/2019
2/9/2019 TicWatch C2 Smartwatch Wear OS by Google GGBUZKXP $199.99 100 2/28/2019
2/9/2019 Ticwatch PRO Smartwatch Wear OS WTXJKBMJ $239.99 100 2/28/2019
2/9/2019 Ticwatch E Sports Smartwatch YHKOUXPA $119.99 100 2/10/2019
2/9/2019 Makibes BR3 Smart Watch Support Strava Built-in GPS ENFFLXQJ $49.99 100 2/17/2019
2/9/2019 [All Oversea Stock] Xiaomi HUAMI AMAZFIT Stratos 2 BTRYRIWQ $164.99 100 2/9/2019
2/9/2019 All PC Peripherals & Gaming Gadgets of EU Warehouses EZASAXKX 5% OFF 100 2/28/2019
2/9/2019 [Spain Stock] Kingston A400 SSD 480GB SSD BHHSNLGN $84.99 100 2/28/2019
2/9/2019 Original Xiaomi Mi WiFi Amplifier 2 PCKNBIGR $10.99 100 2/28/2019
2/9/2019 TOSHIBA DT01ACA100 1TB 3.5 Inch Desktop HDD HRQGUSOZ $61.99 100 2/28/2019
2/9/2019 VORKE Z6 PLUS Amlogic S912 3GB/32GB TV BOX TOP10TV $58.99 100 2/28/2019
2/9/2019 A95X MAX S905X2 4GB 64GB 4K Android TV Box TOP10TV $69.88 100 2/28/2019
2/9/2019 ZIDOO X9S Realtek RTD1295 Android OpenWRT 3D 4K Blu-ray Media Player TOP10TV $118.99 100 2/28/2019
2/9/2019 ACEPC AK1H Licensed Windows 10 Intel Apollo Lake J3455 6GB/64GB Mini PC ONOFWARV $189.99 100 2/14/2019
2/9/2019 ACEPC AK1H Licensed Windows 10 Intel Apollo Lake J3455 4GB/64GB Mini PC MQHBJKVM $175.99 100 2/14/2019
2/9/2019 [Spain Stock] A95X MAX S905X2 4GB 64GB eMMC 4K Android 8.1 TV Box WIOIKQWJ $78.99 100 2/18/2019
2/9/2019 Tronsmart Element T6 Bluetooth Speaker – Black ANEQNBAH $39.99 100 2/10/2019
2/9/2019 Tronsmart Element Mega SoundPulse™ Bluetooth Speaker 40W BIMQCTAR $41.99 100 2/10/2019
2/9/2019 Tronsmart Element Force SoundPulse™ Bluetooth Speaker TWS & NFC NLGQPHOP $54.99 100 2/10/2019
2/9/2019 Tronsmart Glary Gaming Headset 7.1 Virtual Surround Sound AXYINAMJ $26.99 100 2/10/2019
2/9/2019 [Spain Stock] Tronsmart Encore Spunky TWS Bluetooth Earbuds Supports Siri Google Assistant SUEBZBBX $35.99 100 2/17/2019
2/9/2019 Ramsta S800 480GB SSD AOOKFMIP $55.99 100 2/10/2019
2/9/2019 Ramsta S800 1TB SSD EOYTRGTM $106.99 100 2/10/2019
2/9/2019 Kingston A400 SSD 240GB QWRTIAHO $46.99 100 2/10/2019
2/9/2019 Kingston A400 SSD 480GB NTNEYXCR $79.99 100 2/10/2019
2/9/2019 Netac N600S 720GB SSD WVFVVOTG $69.99 100 2/10/2019
2/9/2019 Netac N600S 1TB SSD SWLQKUSU $119.99 100 2/10/2019
2/9/2019 [Germany Stock] Razer Mamba Elite Right-Handed Gaming Mouse BDKXCZLP $69.99 100 2/9/2019
2/9/2019 [Italy Stock] Kingston A400 SSD 480GB GCFWACKX $89.99 100 2/9/2019
2/9/2019 SG900 720P WiFi FPV Foldable RC Drone – Black / White FZBSHLHM $52.99 100 2/9/2019
2/9/2019 Flysky FS-NV14 Nirvana Transmitter with 3.5″ Display 2.4G 14CH Open Source for FPV Racing Drone – Mode 2 AQLAWGGG $172.00 100 2/9/2019
2/9/2019 Flysky FS-i6X 2.4GHz 10CH AFHDS 2A RC Transmitter With X6B i-BUS Receiver BQLQDGEP $52.99 100 2/9/2019
2/9/2019 Happymodel Mobula7 75mm 2S Whoop FPV Racing Drone Frsky NON-EU Receiver BYEXGQAB $79.99 100 2/9/2019
2/9/2019 [Germany Stock] Emax TinyHawk 75mm Brushless FPV Racing Drone OSUCEHMC $86.99 100 2/9/2019
2/9/2019 JDRC JD-20S PRO 1080P WIFI FPV Foldable RC Drone WXWNEASM $49.99 100 2/14/2019
2/9/2019 [Germany Stock] Xiaomi Lexy JIMMY JV51 Cordless Stick Vacuum Cleaner HUYLRKHC $189.99 100 2/16/2019
2/9/2019 [All Stock] Roborock S50 Robot Vacuum Cleaner 2 JCDMZOIF $429.99 100 2/16/2019
2/9/2019 [Italy / Spain Stock] Roborock Xiaowa Plus E35 Robot Vacuum Cleaner PAEIMGUR $329.99 100 2/16/2019
2/9/2019 [Germany Stock] Xiaomi SMATE ST-R102 Turbine Electric Shaver WJMCVDSS $26.99 100 2/16/2019
2/9/2019 [DE Stock] Megawheels S1-2 Portable Folding Electric Scooter GKB030S $189.99 100 2/14/2019
2/9/2019 [Poland Stock] T18 Portable Folding Electric Bicycle 250W 25Km/h GKB031S $469.99 100 2/16/2019
2/9/2019 [Italy Stock] Teclast F6 Pro Notebook Fingerprints Intel Core m3-7Y30 8GB 128GB YOLZIBVI $449.99 100 2/22/2019
2/9/2019 [Germany Stock] Chuwi Lapbook SE Laptop Intel Gemini Lake N4100 4GB 64GB PVCGUULJ $275.99 100 2/22/2019
2/9/2019 Oneplus 6 8GB 256GB – Midnight Black CGLEMWJX $525.99 100 2/25/2019
2/9/2019 Xiaomi Redmi Note 7 3GB + 32GB KEIAAWWA $199.99 100 2/25/2019
2/9/2019 [Spain Stock] Tronsmart Force SoundPulse™ 40W Speaker + 32GB TF Card QWMMSXXA $58.99 100 2/25/2019
2/9/2019 Egreat A5 Hi3798CV200 4K HDR Blu-ray Media Player QOUMBOSN $159.99 100 2/25/2019
2/9/2019 Egreat A10 Pro Hi3798CV200 4K 3D Blu-ray Media Player CDSZYXWF $299.00 100 2/25/2019
2/9/2019 Egreat A8 Hi3798CV200 Blu-ray 4K Media Player DNKPQDSO $189.99 100 2/25/2019
2/9/2019 Makibes BR3 Smart Watch Support Strava Built-in GPS ENFFLXQJ $46.99 100 2/25/2019
2/9/2019 Makibes A4 4G LTE Smartwatch Phone 16G GPS WiFi Heart Rate Monitor MWFICDGI $114.99 100 2/25/2019
2/9/2019 Ticwatch PRO Smartwatch Wear OS Double ScreensBuilt-in GPS JPTZZIKE $259.99 100 2/25/2019
2/9/2019 Netac N600S 512GB SSD EHIQBVVN $66.99 100 2/25/2019
2/9/2019 Kingston DTIG4 32GB Data Traveler USB 3.0 Flash Drive – Red LONBJNFM $7.99 100 2/25/2019
2/9/2019 CW10211 USB Flash Disk 128GB Capacity USB3.0 PVXNHNFP $19.99 100 2/25/2019
2/9/2019 [Germany Stock] Xiaomi Mi Pad 4 WiFi 8.0 Inch 1920*1200 LQGDTJCP $229.99 100 2/25/2019
2/9/2019 [Poland Stock] One Netbook One Mix 2 Yoga Pocket Laptop QVABPLDK $659.99 100 2/25/2019
2/9/2019 [Poland Stock] VOYO i8 Plus 4G Phablet TJQHNMKJ $278.99 100 2/25/2019
2/9/2019 Flowers Glass Cover Wooden Base Flower LED Light HZPXKHOK $12.99 100 2/25/2019
2/9/2019 Xiaomi M1X Pro Smart Clothes Dryer LZMIAVIC $379.99 100 2/25/2019
2/9/2019 Handheld Steam Portable Personal Ultrasonic Nebulizer JQYQJPKO $22.99 100 2/25/2019
2/9/2019 RELX E-Cigarette Kit AHOYKVIQ $59.99 100 2/25/2019
2/9/2019 Xiaomi Redmi Note 7 6GB + 64GB MFJRORQY $289.99 100 2/22/2019
2/9/2019 Oneplus 6T McLaren Edition 10GB + 256GB BRFNARZL $839.99 100 2/22/2019
2/9/2019 DOOGEE S80 6GB 64GB FTPKRHXU $369.99 100 2/22/2019
2/9/2019 LeTV LeEco Le 2 X620 3GB 32GB CMLRJTNV $99.99 100 2/22/2019
2/9/2019 [Italy Stock] Teclast F6 Pro Notebook Fingerprints Intel Core m3-7Y30 8GB 128GB YOLZIBVI $449.99 100 2/22/2019
2/9/2019 [Germany Stock] Chuwi Lapbook SE Laptop Intel Gemini Lake N4100 4GB 64GB PVCGUULJ $275.99 100 2/22/2019
2/9/2019 For All New Arrivals of Huawei Watch (Magic of Blue and Local Warehouse, GT) MJJESWSZ $10 OFF 100 2/22/2019
2/9/2019 Huawei TalkBand B5 Bluetooth Smart Bracelet Headset Function ROBWTEWM $159.99 100 2/22/2019
2/9/2019 Portable External M.2 480G Type-c Enclosure To M.2 SSD UKHNTLPL $69.99 100 2/22/2019
2/9/2019 Kingston DTIG4 32GB Data Traveler USB 3.0 Flash Drive YMJSAALO $7.99 100 2/22/2019
2/9/2019 Dophigo DPH-DI-200 Smart Wifi Video Doorbell EYULHUIL $54.99 100 2/22/2019
2/9/2019 Closet Dehumidifier Calcium Chloride Moisture Absorption Particulars EEXYTQMF $44.99 100 2/22/2019
2/9/2019 Xiaomi Yeelight Moonlight Smart LED Ceiling Light XKNXEQMT $174.99 100 2/22/2019
2/9/2019 Handheld Steam Portable Personal Ultrasonic Nebulizer KRFVXUWB $23.99 100 2/22/2019

Update on Jan.,18, 2019

Start Date Category Product Name Link on Coupon Final Prices Limited Qty Expiry Date
1/18/2019 Cellphone Xiaomi Redmi Note 7 4GB 64GB – Black XYJTKATQ 239.99 100 2/18/2019
1/18/2019 Cellphone Xiaomi Redmi Note 7 6GB 64GB – Black BPXRLEXE $289.99 100 2/18/2019
1/18/2019 Cellphone Xiaomi Redmi Note 7 3GB 32GB – Black BPXRLEXE $215.99 100 2/18/2019
1/18/2019 Cellphone [Italy Stock] Global ROM Oneplus 6T 6GB 128GB – Mirror Black GPZALTHA $579.99 100 2/18/2019
1/18/2019 Cellphone [Italy Stock] Global Version Xiaomi Mi 8 Lite 6GB 128GB – Dream Blue GRPSFDEI $279.99 100 2/18/2019
1/18/2019 Cellphone [Italy Stock] Global Version Xiaomi Redmi Note 5 4GB 64GB PFFONYPG $199.99 100 2/18/2019
1/18/2019 Cellphone [Italy Stock] Xiaomi Pocophone F1 6GB 64GB – Steel Blue YMLKMUVS $349.99 100 2/18/2019
1/18/2019 Cellphone [Italy Stock] Global Version Xiaomi Mi Mix 2S 6GB 64GB – White JIREOIXX $379.99 100 2/18/2019
1/16/2019 Smart Home [Italy / Germany Stock] Xiaomi Lexy JIMMY JV51 Cordless Stick Vacuum Cleaner IMBTVBOQ $224.99 100 2/16/2019
1/18/2019 TV Box [Spain Stock] A95X MAX S905X2 4GB 64GB eMMC 4K Android 8.1 TV Box WIOIKQWJ $78.99 100 2/18/2019
1/18/2019 TV Box MECOOL KM9 Amlogic S905X2 Android 8.1 4GB 32GB 4K TV Box DEQGTUHQ $55.99 100 2/18/2019
1/18/2019 TV Box X88 MAX+ Android 9.0 4GB/64GB RK3328 4K TV Box UXBUEOIP $49.99 100 2/18/2019
1/18/2019 Computer & Networking [All Stock] Kingston A400 SSD 480GB SATA 3 2.5 Inch QATEWKFW $79.99 100 2/18/2019
1/18/2019 Wearable Devices Huawei Honor Magic Smart Watch – Blue YWGKCNUP $219.99 100 2/18/2019

 

Update on Jan.,17, 2019

Start Date Category Product Name Link on Coupon Final Prices Limited Qty Expiry Date
1/17/2019 Cellphone Xiaomi Mi Mix 2 SE 8GB 128GB White CCHEEBQV $309.99 100 2/17/2019
1/17/2019 Cellphone Xiaomi Mi8 6GB 64GB White VDAFFXAD $349.99 100 2/17/2019
1/17/2019 Consumer Electronics [Spain Stock] Tronsmart Encore Spunky TWS Bluetooth Earbuds Supports Siri Google Assistant SUEBZBBX $35.99 100 2/17/2019
1/17/2019 Wearable Devices Makibes BR3 Smart Watch Support Strava Built-in GPS ENFFLXQJ $49.99 100 2/17/2019
1/17/2019 Wearable Devices Makibes A4 4G LTE Smartwatch Phone Android 7.1 MTK6739 DHVKRFYX $114.99 100 2/17/2019
1/17/2019 Computer & Networking CW10014 USB Flash Drive 128GB RNAGATYS $11.99 100 2/17/2019
1/17/2019 Computer & Networking CW10261 USB Flash Drive 32GB ZVRDXIOY $12.99 100 2/17/2019
1/17/2019 Laptops & Tablets GPD WIN 2 Gamepad Tablet PC Intel Core m3-7Y30 HHSJCKEU $750.99 100 2/17/2019
1/17/2019 Laptops & Tablets VOYO I7 Notebook 15.6 Inch Intel Core i7-6500U FTSNYVFU $595.99 100 2/17/2019
1/17/2019 Laptops & Tablets CENAVA P14 Laptop Intel celeron J3455 14″ 6GB 120GB XXMJUXXL $259.99 100 2/17/2019
1/17/2019 Laptops & Tablets CENAVA P14 Laptop Intel celeron J3455 14″ 6GB 2400GB OFEMFALE $275.99 100 2/17/2019

 

Update on Jan.,16, 2019

Start Date Product Name Link on Coupon Final Prices Limited Qty Expiry Date
1/16/2019 Xiaomi Poco F1 6GB RAM 128GB Black JGFQEXZZ $349.99 100 2/16/2019
1/16/2019 CW10261 USB Flash Drive 32GB Type-C Interface ZVRDXIOY $12.99 100 2/16/2019
1/16/2019 HUAWEI WATCH GT Sports Smart Watch Built-in GPS KTGTOYKT $209.99 100 2/16/2019
1/16/2019 Baseus CCALL AJK01 QI 10W Wireless Charger YMTDYCUR $11.99 100 2/16/2019
1/1/2019 [Poland Stock] T18 Portable Folding Electric Bicycle 250W 25Km/h GKB031S $469.99 100 2/16/2019
1/16/2019 [Germany Stock] Xiaomi Lexy JIMMY JV51 Cordless Stick Vacuum Cleaner HUYLRKHC $189.99 100 2/16/2019
1/16/2019 [All Stock] Roborock S50 Robot Vacuum Cleaner 2 JCDMZOIF $429.99 100 2/16/2019
1/16/2019 [Italy / Spain Stock] Roborock Xiaowa Plus E35 Robot Vacuum Cleaner PAEIMGUR $329.99 100 2/16/2019
1/16/2019 LED Electronic Photosensitive Clock DCIKFSSC $8.99 100 2/16/2019
1/16/2019 Xiaomi SOOCAS N1 Nose Ears Sideburns Trimmer JWDAJNOG $15.99 100 2/16/2019
1/16/2019 [Germany Stock] Xiaomi SMATE ST-R102 Turbine Electric Shaver WJMCVDSS $26.99 100 2/16/2019
1/16/2019 DJI Smart Controller PYIVAASO $659.00 100 2/16/2019
1/16/2019 DJI Mavic 2 Pro with DJI Smart Controller HQLTBQNG $2,179.99 100 2/16/2019
1/16/2019 DJI Mavic 2 Zoom with DJI Smart Controller FFDMFVVB $1,879.99 100 2/16/2019
1/16/2019 Huawei MateBook 13 Laptop Intel Core i7-8565U SIJSHAJG $1,095.99 100 2/16/2019
1/16/2019 ALLDOCUBE Cube X Tablet PC MTK8176 NZNRTWPO $325.99 100 2/16/2019

 

Update on Jan.,14, 2019

Start Date Product Name Link on Coupon Final Prices Limited Qty Expiry Date
1/14/2019 Blackview BV9600 pro 6GB 128GB Gray / Silver SPVJRSWZ $369.99 100 2/14/2019
1/14/2019 Huawei Honor Magic Smart Watch Built-in GPS NFC – Silver BXBQFRVB $139.99 100 2/14/2019
1/14/2019 [English Version] Huami AMAZFIT Verge 3 – All Colors HKXEIIMR $154.99 100 2/14/2019
1/14/2019 Kingston DTDUO3 32GB Digital Data Transfer Micro USB3.0 OTG Flash Drive URCOJQR $13.99 100 2/14/2019
1/14/2019 [DE Stock] Megawheels S1-2 Portable Folding Electric Scooter GKB030S $189.99 100 2/14/2019
1/14/2019 ACEPC AK1H Licensed Windows 10 Intel Apollo Lake J3455 6GB/64GB Mini PC ONOFWARV $189.99 100 2/14/2019
1/14/2019 ACEPC AK1H Licensed Windows 10 Intel Apollo Lake J3455 4GB/64GB Mini PC MQHBJKVM $175.99 100 2/14/2019
1/14/2019 JDRC JD-20S PRO 1080P WIFI FPV Foldable RC Drone WXWNEASM $49.99 100 2/14/2019
1/14/2019 Xiaomi Andon VP-M3A Micro Mesh Nebulizer MVSMVRZC $59.99 100 2/14/2019


Update on Jan.,11, 2019

Start Date Category Product Name Link on Coupon Final Prices Limited Qty Expiry Date
1/11/2019 Cellphone Global ROM Oneplus 6T 8GB 256GB Midnight Black KJFQVPIP $659.99 100 2/112019
1/11/2019 Cellphone Global Version Xiaomi Pocophone F1 6GB 64GB BATAFRLA $329.99 100 2/112019
1/11/2019 Cellphone [Germany Stock] Global Version Xiaomi Mi MIX 2S 6GB 64GB ZWHULDVN $379.99 100 2/112019
1/11/2019 Cellphone Nubia X 6GB 64GB USGDIYMT $529.99 100 2/112019
1/11/2019 Cellphone OPPO Find X 8GB 128GB TUMUFFAI $709.99 100 2/112019
1/11/2019 RC Drone XK X420 VTOL Vertical Take-off And Landing RC Airplane KINGFTUV $59.99 100 2/112019
1/11/2019 Consumer Electronics Tronsmart True Wireless Stereo Earbuds IPX5 Water Resistant YIFRYKLT $29.99 100 2/112019
1/11/2019 Sports & Outdoors Xiaomi HIMO V1 Portable Folding Electric Moped Bicycle BRCFBTUC $309.99 100 2/112019
1/11/2019 Computer & Networking Kingston A400 SSD 120GB SA400S37/120G FJOZKYZD $34.99 100 2/112019
1/11/2019 Computer & Networking Kingston HyperX FURY S Gaming Mouse Pad GSJNEVRH $19.99 100 2/112019
1/10/2019 Cellphone Blackview BV9600 pro 6GB + 128GB KOKXDURS $369.99 100 2/10/2019
1/10/2019 Cellphone OnePlus 6T 10GB+256G orange HRVLQXGU $849.99 100 2/10/2019
1/10/2019 Cellphone OnePlus 6T 8GB 128GB Black XHWMBHZY $559.99 100 2/10/2019
1/10/2019 Security Systems Xiaoyi YI 1080p Dome Camera Black(US Plug) OWAQMVYS $57.99 100 2/10/2019
1/10/2019 Home Garden Portable Car Refrigerator Mini Fridge Cooler & Warmer ZIBIUAFH $149.99 100 2/10/2019
1/10/2019 Computer & Networking FORESEE S40J mSATA SSD 64G SATA III 6Gb/s – Black VJBCEXAD $39.99 100 2/10/2019
1/10/2019 Computer & Networking Xiaomi MIIIW Wireless Bluetooth / 2.4G Dual-mode Keyboard BDTZZQMI $73.99 100 2/10/2019
1/10/2019 Consumer Electronics Tronsmart Element T6 Bluetooth Speaker – Black ANEQNBAH $39.99 100 2/10/2019
1/10/2019 Consumer Electronics Tronsmart Element Mega SoundPulse™ Bluetooth Speaker 40W BIMQCTAR $41.99 100 2/10/2019
1/10/2019 Consumer Electronics Tronsmart Element Force SoundPulse™ Bluetooth Speaker TWS & NFC NLGQPHOP $54.99 100 2/10/2019
1/10/2019 Consumer Electronics Tronsmart Glary Gaming Headset 7.1 Virtual Surround Sound AXYINAMJ $26.99 100 2/10/2019
1/10/2019 Computer & Networking Ramsta S800 480GB SSD AOOKFMIP $55.99 100 2/10/2019
1/10/2019 Computer & Networking Ramsta S800 1TB SSD EOYTRGTM $106.99 100 2/10/2019
1/10/2019 Computer & Networking Kingston A400 SSD 240GB QWRTIAHO $46.99 100 2/10/2019
1/10/2019 Computer & Networking Kingston A400 SSD 480GB NTNEYXCR $79.99 100 2/10/2019
1/10/2019 Computer & Networking Netac N600S 720GB SSD WVFVVOTG $69.99 100 2/10/2019
1/10/2019 Computer & Networking Netac N600S 1TB SSD SWLQKUSU $119.99 100 2/10/2019
1/10/2019 Wearable Devices Ticwatch E Sports Smartwatch YHKOUXPA $119.99 100 2/10/2019
Share.

Leave A Reply